Time;durP1;ratioP1;P1;durP2;ratioP2;P2;SDS_P1;SDS_P2;PMS_P1;PMS_P2;Temp;Humidity;BMP_temperature;BMP_pressure;BME280_temperature;BME280_humidity;BME280_pressure;Samples;Min_cycle;Max_cycle;Signal;HPM_P1;HPM_P2
2023/07/06 00:00:36;;;;;;;11.00;7.80;;;;;;;16.73;84.09;98681.34;225807;1280;22531;-76
2023/07/06 00:06:29;;;;;;;10.50;8.50;;;;;;;16.68;84.13;98686.62;225761;1280;22559;-78
2023/07/06 00:11:53;;;;;;;11.50;8.40;;;;;;;16.63;84.34;98695.17;225786;1280;22541;-77
2023/07/06 00:18:18;;;;;;;;;;;;;;;;;;;;;
2023/07/06 00:30:30;;;;;;;;;;;;;;;;;;;;;
2023/07/06 00:36:25;;;;;;;9.00;7.90;;;;;;;16.41;84.54;98715.44;225863;1279;22556;-78
2023/07/06 00:42:00;;;;;;;;;;;;;;;;;;;;;
2023/07/06 00:48:49;;;;;;;8.80;7.40;;;;;;;16.37;84.84;98714.58;225668;1280;22531;-77
2023/07/06 00:54:45;;;;;;;11.00;6.90;;;;;;;16.36;84.73;98712.58;225950;1280;22540;-77
2023/07/06 01:07:02;;;;;;;8.00;6.00;;;;;;;16.30;84.69;98736.89;225892;1281;22530;-77
2023/07/06 01:13:00;;;;;;;6.20;5.50;;;;;;;16.29;84.72;98735.30;225698;1280;23705;-77
2023/07/06 01:19:17;;;;;;;7.80;5.80;;;;;;;16.31;84.51;98738.27;225793;1281;22540;-77
2023/07/06 01:26:46;;;;;;;8.70;5.70;;;;;;;16.34;84.26;98732.54;225616;1281;22520;-77
2023/07/06 01:32:44;;;;;;;8.70;5.10;;;;;;;16.37;84.24;98739.27;224930;1281;23302;-77
2023/07/06 01:45:35;;;;;;;7.00;5.40;;;;;;;16.33;83.79;98741.64;225523;1281;25939;-77
2023/07/06 02:04:30;;;;;;;;;;;;;;;;;;;;;
2023/07/06 02:11:28;;;;;;;7.60;4.80;;;;;;;16.01;83.09;98759.63;225643;1280;24256;-76
2023/07/06 02:18:02;;;;;;;5.90;4.20;;;;;;;15.92;83.08;98761.05;225608;1280;22545;-77
2023/07/06 02:24:40;;;;;;;8.70;4.90;;;;;;;15.81;83.09;98760.35;225696;1280;22551;-77
2023/07/06 02:31:09;;;;;;;9.50;4.80;;;;;;;15.73;83.03;98765.85;225771;1280;22545;-77
2023/07/06 02:37:53;;;;;;;;;;;;;;;;;;;;;
2023/07/06 02:45:03;;;;;;;8.80;5.00;;;;;;;15.56;83.19;98784.91;225584;1280;22554;-76
2023/07/06 02:51:29;;;;;;;9.60;4.80;;;;;;;15.47;83.33;98782.39;225589;1280;22538;-76
2023/07/06 02:57:51;;;;;;;8.30;4.40;;;;;;;15.41;83.33;98790.04;225752;1280;22540;-78
2023/07/06 03:04:20;;;;;;;;;;;;;;;;;;;;;
2023/07/06 03:22:38;;;;;;;11.50;6.40;;;;;;;15.41;83.28;98797.13;225015;1280;22566;-76
2023/07/06 03:28:00;;;;;;;7.30;4.60;;;;;;;15.49;83.22;98795.98;224951;1288;23461;-77
2023/07/06 03:33:32;;;;;;;9.20;4.40;;;;;;;15.60;83.37;98814.83;224989;1284;23200;-77
2023/07/06 03:39:05;;;;;;;5.20;4.20;;;;;;;15.72;83.01;98816.69;224944;1288;22556;-76
2023/07/06 03:45:20;;;;;;;7.70;4.40;;;;;;;15.84;82.82;98823.04;225346;1280;24231;-77
2023/07/06 03:51:16;;;;;;;7.00;4.80;;;;;;;15.95;82.45;98826.38;225851;1280;24250;-77
2023/07/06 03:57:20;;;;;;;;;;;;;;;;;;;;;
2023/07/06 04:03:52;;;;;;;8.10;4.30;;;;;;;16.52;82.41;98849.42;225804;1280;22578;-77
2023/07/06 04:09:51;;;;;;;6.70;4.40;;;;;;;17.00;81.67;98847.96;226094;1279;22530;-77
2023/07/06 04:15:55;;;;;;;;;;;;;;;;;;;;;
2023/07/06 04:22:10;;;;;;;9.80;4.80;;;;;;;17.29;80.80;98867.51;225813;1279;22641;-76
2023/07/06 04:29:04;;;;;;;6.90;4.30;;;;;;;17.33;80.31;98872.59;225990;1279;22552;-77
2023/07/06 04:34:47;;;;;;;9.90;4.30;;;;;;;17.32;80.24;98878.52;225800;1280;22572;-77
2023/07/06 04:39:53;;;;;;;5.90;3.90;;;;;;;17.29;80.29;98879.95;225863;1278;22636;-77
2023/07/06 04:44:59;;;;;;;8.20;4.20;;;;;;;17.32;80.35;98881.52;225774;1275;24336;-77
2023/07/06 04:50:38;;;;;;;7.90;4.40;;;;;;;17.37;80.12;98890.02;225860;1276;22614;-76
2023/07/06 04:56:51;;;;;;;8.50;4.30;;;;;;;17.46;79.79;98890.63;225848;1262;22524;-77
2023/07/06 05:02:35;;;;;;;7.20;4.10;;;;;;;17.57;79.67;98899.19;225795;1280;22680;-77
2023/07/06 05:15:25;;;;;;;8.90;4.50;;;;;;;17.95;79.64;98909.41;225606;1280;22544;-77
2023/07/06 05:22:12;;;;;;;10.10;4.70;;;;;;;18.27;78.88;98903.89;225815;1280;22539;-77
2023/07/06 05:28:20;;;;;;;;;;;;;;;;;;;;;
2023/07/06 05:34:48;;;;;;;7.60;4.40;;;;;;;18.48;77.11;98932.06;225802;1257;22560;-77
2023/07/06 05:41:06;;;;;;;7.40;4.50;;;;;;;18.47;77.26;98934.06;225806;1280;22629;-77
2023/07/06 05:47:17;;;;;;;;;;;;;;;;;;;;;
2023/07/06 05:53:34;;;;;;;6.90;4.00;;;;;;;18.65;76.72;98931.69;225355;1280;22550;-77
2023/07/06 05:58:59;;;;;;;7.20;4.30;;;;;;;18.70;76.86;98933.84;225440;1257;25419;-77
2023/07/06 06:04:31;;;;;;;5.30;3.90;;;;;;;18.83;76.73;98940.30;225419;1263;23281;-77
2023/07/06 06:10:28;;;;;;;6.00;4.40;;;;;;;18.98;76.80;98946.29;225517;1259;22626;-75
2023/07/06 06:15:41;;;;;;;8.10;3.70;;;;;;;19.19;76.18;98948.14;225480;1264;22814;-75
2023/07/06 06:21:20;;;;;;;;;;;;;;;;;;;;;
2023/07/06 06:26:28;;;;;;;5.10;3.80;;;;;;;19.50;75.22;98953.27;225303;1275;22544;-75
2023/07/06 06:31:42;;;;;;;7.00;4.10;;;;;;;19.81;74.92;98960.08;225406;1276;22537;-76
2023/07/06 06:37:30;;;;;;;6.90;3.50;;;;;;;20.20;73.95;98963.70;225345;1280;22584;-75
2023/07/06 06:43:10;;;;;;;6.90;3.80;;;;;;;20.45;72.56;98966.94;225662;1273;22547;-75
2023/07/06 06:48:25;;;;;;;7.30;3.90;;;;;;;20.70;71.95;98974.21;225411;1273;22647;-77
2023/07/06 06:54:30;;;;;;;6.50;3.50;;;;;;;21.07;71.21;98985.36;225279;1262;25912;-76
2023/07/06 06:59:43;;;;;;;5.90;3.60;;;;;;;21.19;69.39;98986.95;225455;1272;24577;-75
2023/07/06 07:04:49;;;;;;;7.30;3.00;;;;;;;21.23;69.61;98990.08;225475;1262;22555;-75
2023/07/06 07:10:05;;;;;;;;;;;;;;;;;;;;;
2023/07/06 07:15:37;;;;;;;4.80;3.00;;;;;;;21.84;67.72;99005.02;225560;1273;22562;-77
2023/07/06 07:20:54;;;;;;;5.20;2.80;;;;;;;22.03;66.48;99004.70;225551;1273;26959;-77
2023/07/06 07:26:44;;;;;;;3.80;3.10;;;;;;;22.32;65.95;99004.55;225417;1268;22552;-77
2023/07/06 07:32:09;;;;;;;4.20;3.30;;;;;;;22.71;64.97;99005.25;225442;1256;22548;-76
2023/07/06 07:37:33;;;;;;;7.00;3.20;;;;;;;23.08;63.86;99011.52;225328;1258;22942;-77
2023/07/06 07:43:20;;;;;;;3.80;3.00;;;;;;;23.31;62.36;99012.04;225513;1272;23580;-75
2023/07/06 07:48:40;;;;;;;;;;;;;;;;;;;;;
2023/07/06 07:54:03;;;;;;;4.30;3.10;;;;;;;23.75;61.11;99013.02;225649;1280;22530;-75
2023/07/06 07:59:05;;;;;;;5.20;3.30;;;;;;;23.88;59.75;99004.70;225396;1256;22549;-76
2023/07/06 08:04:08;;;;;;;5.20;3.40;;;;;;;23.91;58.96;99006.68;225349;1274;23060;-75
2023/07/06 08:09:26;;;;;;;5.20;2.80;;;;;;;23.99;58.29;99000.91;225433;1274;22634;-75
2023/07/06 08:15:33;;;;;;;4.80;2.80;;;;;;;23.88;57.37;99002.04;225313;1281;22684;-74
2023/07/06 08:20:57;;;;;;;;;;;;;;;;;;;;;
2023/07/06 08:26:31;;;;;;;3.60;2.80;;;;;;;23.63;56.61;99004.21;225559;1274;22554;-75
2023/07/06 08:31:43;;;;;;;3.80;2.70;;;;;;;23.56;56.46;99001.73;225410;1275;22543;-75
2023/07/06 08:36:46;;;;;;;3.90;3.10;;;;;;;23.46;56.03;99005.04;225657;1268;22600;-75
2023/07/06 08:47:16;;;;;;;6.10;2.90;;;;;;;23.50;56.15;99018.73;225362;1273;23483;-74
2023/07/06 08:52:19;;;;;;;4.90;3.00;;;;;;;23.55;56.28;99016.57;225646;1275;22539;-74
2023/07/06 08:57:29;;;;;;;4.70;2.90;;;;;;;23.56;56.19;99023.64;225640;1275;23020;-74
2023/07/06 09:02:36;;;;;;;4.80;2.90;;;;;;;23.58;56.36;99033.41;225751;1276;22592;-74
2023/07/06 09:08:09;;;;;;;4.80;3.00;;;;;;;23.52;55.99;99036.89;225720;1278;22547;-74
2023/07/06 09:13:24;;;;;;;4.30;2.90;;;;;;;23.30;55.75;99037.60;225663;1274;22612;-74
2023/07/06 09:18:29;;;;;;;4.90;3.20;;;;;;;22.98;55.89;99037.14;225595;1275;24284;-74
2023/07/06 09:23:32;;;;;;;4.00;3.20;;;;;;;22.59;56.68;99041.25;225510;1275;22583;-74
2023/07/06 09:29:25;;;;;;;5.40;3.10;;;;;;;22.19;57.05;99048.88;225486;1276;23055;-73
2023/07/06 09:34:55;;;;;;;6.90;3.10;;;;;;;21.76;58.03;99058.02;225411;1259;25415;-73
2023/07/06 09:40:05;;;;;;;6.30;3.10;;;;;;;21.39;59.27;99061.66;225331;1276;22576;-73
2023/07/06 09:45:25;;;;;;;6.80;3.40;;;;;;;21.09;60.69;99062.34;225573;1276;22554;-73
2023/07/06 09:56:33;;;;;;;6.50;3.10;;;;;;;20.35;63.54;99075.80;225727;1280;23366;-77
2023/07/06 10:02:31;;;;;;;6.10;3.30;;;;;;;20.00;64.74;99084.15;225696;1278;22572;-77
2023/07/06 10:08:23;;;;;;;;;;;;;;;;;;;;;
2023/07/06 10:14:09;;;;;;;7.20;3.60;;;;;;;19.53;66.85;99088.69;225596;1280;22585;-77
2023/07/06 10:19:46;;;;;;;;;;;;;;;;;;;;;
2023/07/06 10:25:22;;;;;;;6.20;3.40;;;;;;;19.65;68.16;99096.38;225483;1274;22543;-78
2023/07/06 10:30:31;;;;;;;17.70;4.50;;;;;;;19.68;68.51;99100.90;225655;1262;23009;-78
2023/07/06 10:35:43;;;;;;;7.40;3.70;;;;;;;19.72;69.06;99097.44;225427;1262;22545;-78
2023/07/06 10:41:31;;;;;;;5.50;3.70;;;;;;;19.90;69.46;99096.26;225445;1262;24328;-78
2023/07/06 10:48:22;;;;;;;4.40;3.40;;;;;;;20.30;69.10;99093.80;225393;1275;22548;-78
2023/07/06 10:55:04;;;;;;;3.70;3.20;;;;;;;20.90;68.14;99092.48;225483;1276;22877;-78
2023/07/06 11:00:18;;;;;;;5.90;4.00;;;;;;;21.33;66.55;99100.52;225264;1276;22544;-78
2023/07/06 11:05:39;;;;;;;2.80;2.10;;;;;;;21.94;65.59;99102.52;225266;1262;22854;-77
2023/07/06 11:10:48;;;;;;;3.00;2.20;;;;;;;22.47;62.78;99093.36;225365;1275;22539;-77
2023/07/06 11:15:51;;;;;;;4.40;2.80;;;;;;;22.91;61.65;99084.10;225422;1275;22542;-76
2023/07/06 11:21:17;;;;;;;3.80;2.50;;;;;;;23.31;59.91;99081.83;225595;1276;24225;-74
2023/07/06 11:27:02;;;;;;;3.70;3.30;;;;;;;23.50;57.63;99079.66;225539;1280;22602;-74
2023/07/06 11:33:04;;;;;;;7.00;3.90;;;;;;;23.61;56.05;99079.48;225557;1257;22555;-75
2023/07/06 11:44:39;;;;;;;4.30;3.90;;;;;;;24.08;54.87;99073.59;225578;1262;23262;-75
2023/07/06 11:50:09;;;;;;;4.10;3.70;;;;;;;24.27;54.05;99061.48;225379;1262;22545;-76
2023/07/06 12:01:32;;;;;;;5.00;4.20;;;;;;;24.23;52.71;99064.32;225307;1275;22574;-76
2023/07/06 12:06:40;;;;;;;4.60;3.90;;;;;;;24.19;52.83;99065.67;225383;1259;24242;-77
2023/07/06 12:12:05;;;;;;;4.70;4.10;;;;;;;24.48;52.66;99061.64;225309;1262;22575;-77
2023/07/06 12:17:19;;;;;;;6.10;4.20;;;;;;;24.83;52.04;99056.88;225315;1274;25357;-76
2023/07/06 12:22:21;;;;;;;5.50;4.10;;;;;;;24.98;51.63;99053.94;225482;1273;22537;-77
2023/07/06 12:27:30;;;;;;;4.40;4.00;;;;;;;25.01;50.85;99052.36;225409;1259;22548;-76
2023/07/06 12:32:47;;;;;;;4.50;4.10;;;;;;;24.85;49.85;99055.02;225492;1273;22546;-76
2023/07/06 12:38:24;;;;;;;4.70;4.30;;;;;;;24.77;49.98;99053.38;225540;1273;22495;-76
2023/07/06 12:43:37;;;;;;;5.30;3.90;;;;;;;24.84;49.93;99046.27;225528;1271;23232;-76
2023/07/06 12:48:47;;;;;;;5.00;4.10;;;;;;;24.77;50.12;99040.02;225442;1271;22594;-76
2023/07/06 12:54:17;;;;;;;4.40;4.00;;;;;;;24.71;50.13;99036.79;224884;1281;23074;-76
2023/07/06 12:59:43;;;;;;;4.80;4.30;;;;;;;24.70;50.35;99035.87;224804;1278;22730;-76
2023/07/06 13:04:50;;;;;;;5.00;4.20;;;;;;;24.69;50.19;99033.23;224963;1281;22514;-77
2023/07/06 13:09:59;;;;;;;5.40;4.40;;;;;;;24.79;50.13;99029.80;225142;1280;24305;-76
2023/07/06 13:15:06;;;;;;;5.60;4.60;;;;;;;24.80;49.53;99023.47;225389;1280;22561;-76
2023/07/06 13:20:10;;;;;;;5.00;3.80;;;;;;;24.58;49.52;99026.39;225356;1272;25345;-75
2023/07/06 13:25:22;;;;;;;8.10;4.50;;;;;;;24.41;49.82;99021.61;225518;1275;22533;-77
2023/07/06 13:31:14;;;;;;;6.80;4.70;;;;;;;24.39;49.84;99015.66;225554;1278;25407;-77
2023/07/06 13:36:45;;;;;;;5.00;4.20;;;;;;;24.44;49.25;99021.44;225771;1280;24279;-77
2023/07/06 13:42:03;;;;;;;4.60;4.20;;;;;;;24.52;49.77;99008.84;225726;1262;24903;-81
2023/07/06 13:47:29;;;;;;;;;;;;;;;;;;;;;
2023/07/06 13:52:41;;;;;;;4.50;4.00;;;;;;;24.62;49.02;98997.54;225849;1275;22569;-79
2023/07/06 13:58:05;;;;;;;4.30;3.90;;;;;;;24.69;49.06;99000.64;225688;1262;22540;-80
2023/07/06 14:03:31;;;;;;;4.90;4.00;;;;;;;24.80;48.47;99007.02;225759;1280;22533;-80
2023/07/06 14:08:45;;;;;;;4.60;4.10;;;;;;;24.84;47.81;99007.23;225846;1278;22523;-81
2023/07/06 14:13:49;;;;;;;4.60;4.10;;;;;;;24.87;47.75;99005.23;225820;1280;25350;-79
2023/07/06 14:19:06;;;;;;;6.10;4.10;;;;;;;24.83;47.81;99005.23;225821;1280;22545;-79
2023/07/06 14:24:20;;;;;;;4.40;4.00;;;;;;;24.79;47.81;99004.43;225940;1278;23353;-80
2023/07/06 14:29:45;;;;;;;3.90;3.50;;;;;;;24.83;47.76;99000.64;225922;1280;22637;-80
2023/07/06 14:35:01;;;;;;;4.60;3.90;;;;;;;24.81;46.88;98999.84;225998;1280;22608;-80
2023/07/06 14:40:24;;;;;;;4.80;3.40;;;;;;;24.74;46.48;99001.38;226022;1280;22536;-79
2023/07/06 14:45:38;;;;;;;3.70;3.30;;;;;;;24.68;46.36;98990.58;226048;1278;22540;-81
2023/07/06 14:50:43;;;;;;;3.70;3.40;;;;;;;24.72;46.31;98997.71;226006;1278;23290;-80
2023/07/06 14:56:40;;;;;;;5.50;3.70;;;;;;;24.78;46.44;98995.96;225852;1280;22539;-80
2023/07/06 15:02:15;;;;;;;4.70;3.50;;;;;;;24.78;46.45;99002.83;225974;1269;22612;-79
2023/07/06 15:08:32;;;;;;;4.70;3.10;;;;;;;24.68;46.64;98997.71;225947;1262;22548;-80
2023/07/06 15:14:04;;;;;;;7.40;4.40;;;;;;;24.70;46.82;98996.52;225914;1278;22548;-79
2023/07/06 15:19:44;;;;;;;4.50;3.40;;;;;;;24.78;46.84;99001.15;226035;1280;22537;-79
2023/07/06 15:25:34;;;;;;;4.30;3.30;;;;;;;24.76;46.18;99006.29;225962;1280;22544;-79
2023/07/06 15:31:08;;;;;;;4.50;3.20;;;;;;;24.67;46.66;99001.66;225993;1262;22540;-78
2023/07/06 15:36:18;;;;;;;4.30;3.70;;;;;;;24.74;46.61;99000.24;225969;1280;25322;-80
2023/07/06 15:41:29;;;;;;;3.90;3.00;;;;;;;24.77;46.55;98999.64;225871;1280;22595;-79
2023/07/06 15:47:49;;;;;;;;;;;;;;;;;;;;;
2023/07/06 15:59:36;;;;;;;;;;;;;;;;;;;;;
2023/07/06 16:05:03;;;;;;;4.50;3.10;;;;;;;24.78;45.85;98984.72;225974;1280;24367;-79
2023/07/06 16:16:05;;;;;;;;;;;;;;;;;;;;;
2023/07/06 16:21:39;;;;;;;;;;;;;;;;;;;;;
2023/07/06 16:27:25;;;;;;;3.60;3.20;;;;;;;24.65;46.13;98968.91;225910;1280;22561;-79
2023/07/06 16:33:07;;;;;;;;;;;;;;;;;;;;;
2023/07/06 16:39:36;;;;;;;;;;;;;;;;;;;;;
2023/07/06 16:45:06;;;;;;;3.50;3.20;;;;;;;24.54;46.66;98964.63;225931;1280;25297;-79
2023/07/06 16:51:49;;;;;;;;;;;;;;;;;;;;;
2023/07/06 16:57:34;;;;;;;4.00;3.20;;;;;;;24.40;46.81;98967.90;225920;1280;22539;-79
2023/07/06 17:03:51;;;;;;;;;;;;;;;;;;;;;
2023/07/06 17:09:31;;;;;;;4.00;3.20;;;;;;;24.23;47.04;98968.40;225934;1280;22579;-79
2023/07/06 17:15:47;;;;;;;3.80;3.30;;;;;;;24.39;47.48;98968.56;225808;1280;24218;-79
2023/07/06 17:21:51;;;;;;;6.00;4.30;;;;;;;25.45;48.02;98969.33;225953;1280;24200;-79
2023/07/06 17:27:05;;;;;;;3.70;3.30;;;;;;;26.96;47.10;98969.27;226026;1279;22540;-79
2023/07/06 17:32:55;;;;;;;3.80;3.40;;;;;;;28.09;45.98;98965.38;225903;1278;22549;-79
2023/07/06 17:39:07;;;;;;;4.60;3.20;;;;;;;29.08;45.05;98969.48;225609;1283;22574;-79
2023/07/06 17:44:30;;;;;;;4.10;3.60;;;;;;;30.11;43.67;98970.35;224922;1277;22546;-80
2023/07/06 17:49:51;;;;;;;;;;;;;;;;;;;;;
2023/07/06 17:55:21;;;;;;;;;;;;;;;30.64;41.34;98970.23;225006;1288;25084;-79
2023/07/06 18:01:05;;;;;;;;;;;;;;;;;;;;;
2023/07/06 18:12:52;;;;;;;5.50;3.90;;;;;;;26.88;43.13;98985.37;225307;1280;22549;-79
2023/07/06 18:18:35;;;;;;;4.90;3.50;;;;;;;26.12;43.87;98993.82;225923;1274;22552;-80
2023/07/06 18:24:25;;;;;;;4.30;3.90;;;;;;;25.35;44.75;99000.89;225792;1278;208358;-78
2023/07/06 18:30:14;;;;;;;43.10;37.80;;;;;;;24.69;45.67;98999.60;225871;1281;22565;-79
2023/07/06 18:36:32;;;;;;;;;;;;;;;;;;;;;
2023/07/06 18:42:05;;;;;;;6.20;4.70;;;;;;;23.56;48.30;98999.67;225839;1280;23302;-78
2023/07/06 18:48:15;;;;;;;;;;;;;;;;;;;;;
2023/07/06 18:53:45;;;;;;;4.90;3.70;;;;;;;22.62;50.58;99013.05;225843;1280;25354;-78
2023/07/06 18:59:39;;;;;;;5.10;3.70;;;;;;;22.16;51.69;99028.66;225933;1279;22557;-78
2023/07/06 19:05:10;;;;;;;109.40;94.10;;;;;;;21.64;52.65;99034.67;225899;1281;26142;-79
2023/07/06 19:10:22;;;;;;;12.20;9.00;;;;;;;21.23;53.60;99039.73;225933;1276;22543;-79
2023/07/06 19:15:49;;;;;;;8.60;4.10;;;;;;;20.85;54.67;99043.64;225902;1280;22541;-78
2023/07/06 19:20:52;;;;;;;6.60;3.90;;;;;;;20.51;55.54;99051.19;225991;1276;22544;-78
2023/07/06 19:25:54;;;;;;;6.80;3.60;;;;;;;20.18;56.71;99054.95;225731;1280;22546;-79
2023/07/06 19:30:58;;;;;;;7.20;5.10;;;;;;;19.87;57.68;99058.16;225875;1280;22550;-79
2023/07/06 19:36:10;;;;;;;6.10;4.10;;;;;;;19.57;58.58;99070.32;225954;1278;22546;-78
2023/07/06 19:41:26;;;;;;;6.10;4.10;;;;;;;19.26;59.38;99071.06;225926;1281;24308;-78
2023/07/06 19:46:59;;;;;;;4.60;4.10;;;;;;;19.00;60.00;99075.50;225989;1276;22540;-78
2023/07/06 19:52:18;;;;;;;11.30;4.30;;;;;;;18.75;60.67;99072.75;225902;1281;22590;-78
2023/07/06 19:57:27;;;;;;;7.90;4.50;;;;;;;18.54;61.14;99072.52;225987;1281;22545;-78
2023/07/06 20:03:18;;;;;;;6.90;5.10;;;;;;;18.31;61.98;99079.63;226005;1280;22581;-78
2023/07/06 20:08:36;;;;;;;6.70;4.60;;;;;;;18.13;62.98;99076.35;225982;1263;22547;-78
2023/07/06 20:14:01;;;;;;;6.90;4.00;;;;;;;17.95;63.66;99085.57;225071;1279;22557;-78
2023/07/06 20:19:54;;;;;;;6.80;4.20;;;;;;;17.78;64.37;99098.11;225133;1286;22759;-78
2023/07/06 20:25:10;;;;;;;7.20;4.50;;;;;;;17.65;64.93;99102.98;225154;1286;22547;-78
2023/07/06 20:30:27;;;;;;;6.10;3.80;;;;;;;17.52;65.45;99106.98;225454;1257;22540;-78
2023/07/06 20:36:36;;;;;;;5.60;4.00;;;;;;;17.37;65.74;99105.27;225880;1281;22599;-78
2023/07/06 20:42:24;;;;;;;9.50;4.70;;;;;;;17.22;66.24;99104.58;225944;1280;22541;-77
2023/07/06 20:47:44;;;;;;;10.00;6.30;;;;;;;17.09;66.75;99114.21;225780;1280;22557;-78
2023/07/06 20:52:50;;;;;;;9.30;6.80;;;;;;;16.97;67.58;99122.64;225782;1281;22567;-77
2023/07/06 20:57:54;;;;;;;16.70;9.40;;;;;;;16.83;68.18;99125.72;225911;1277;23449;-78
2023/07/06 21:03:27;;;;;;;16.50;9.90;;;;;;;16.68;68.93;99130.26;225921;1279;22541;-78
2023/07/06 21:08:40;;;;;;;7.80;6.20;;;;;;;16.56;69.02;99133.00;225703;1280;22651;-78
2023/07/06 21:13:55;;;;;;;9.60;5.70;;;;;;;16.44;69.18;99138.64;225709;1280;22607;-78
2023/07/06 21:19:15;;;;;;;7.30;5.50;;;;;;;16.29;69.48;99134.77;225732;1280;22547;-78
2023/07/06 21:24:34;;;;;;;10.20;5.80;;;;;;;16.11;69.61;99133.69;225852;1280;22550;-79
2023/07/06 21:29:58;;;;;;;10.10;6.30;;;;;;;15.95;70.08;99134.52;225881;1267;22608;-78
2023/07/06 21:35:09;;;;;;;10.30;6.30;;;;;;;15.85;70.41;99140.41;225911;1280;22830;-79
2023/07/06 21:40:49;;;;;;;9.00;6.00;;;;;;;15.75;71.06;99148.52;225833;1281;22597;-79
2023/07/06 21:45:54;;;;;;;12.20;7.50;;;;;;;15.66;71.48;99152.50;225870;1280;24395;-78
2023/07/06 21:51:11;;;;;;;9.20;6.70;;;;;;;15.57;72.11;99154.59;225850;1280;22561;-78
2023/07/06 21:56:14;;;;;;;11.70;8.10;;;;;;;15.50;72.28;99155.27;225859;1280;22789;-79
2023/07/06 22:01:57;;;;;;;;;;;;;;;;;;;;;
2023/07/06 22:08:03;;;;;;;17.40;11.70;;;;;;;15.39;73.31;99158.10;225923;1280;22552;-78
2023/07/06 22:13:42;;;;;;;17.80;11.70;;;;;;;15.32;73.55;99161.59;225963;1280;22543;-78
2023/07/06 22:18:55;;;;;;;17.20;11.30;;;;;;;15.24;73.70;99161.79;225869;1279;22543;-78
2023/07/06 22:24:29;;;;;;;14.00;9.20;;;;;;;15.16;74.05;99162.98;225832;1280;22536;-77
2023/07/06 22:29:49;;;;;;;;;;;;;;;;;;;;;
2023/07/06 22:36:11;;;;;;;;;;;;;;;;;;;;;
2023/07/06 22:42:04;;;;;;;;;;;;;;;;;;;;;
2023/07/06 23:02:26;;;;;;;10.20;8.30;;;;;;;14.62;75.09;99169.79;225588;1280;22545;-78
2023/07/06 23:08:36;;;;;;;11.80;9.00;;;;;;;14.56;75.34;99167.13;225144;1285;25353;-78
2023/07/06 23:27:01;;;;;;;14.30;9.30;;;;;;;14.39;75.56;99167.34;225721;1280;22544;-77
2023/07/06 23:32:33;;;;;;;11.40;8.50;;;;;;;14.34;75.91;99172.80;225930;1280;22571;-78
2023/07/06 23:38:50;;;;;;;12.40;7.20;;;;;;;14.29;76.40;99176.30;225413;1276;22543;-78
2023/07/06 23:44:13;;;;;;;9.50;7.70;;;;;;;14.23;76.74;99172.62;225394;1281;23563;-78
2023/07/06 23:49:54;;;;;;;9.80;8.30;;;;;;;14.19;76.80;99172.04;225345;1283;23573;-78
2023/07/06 23:56:09;;;;;;;;;;;;;;;;;;;;;
